createdAt,value
2023-03-05T00:08:33.399Z,49.40
2023-03-05T00:20:33.864Z,52.30
2023-03-05T00:32:34.346Z,57.40
2023-03-05T00:44:34.778Z,80.80
2023-03-05T00:56:35.196Z,57.20
2023-03-05T01:08:35.623Z,59.00
2023-03-05T01:20:36.084Z,57.50
2023-03-05T01:32:36.540Z,60.80
2023-03-05T01:44:36.936Z,64.80
2023-03-05T01:56:37.436Z,57.80
2023-03-05T02:08:37.917Z,51.80
2023-03-05T02:20:38.330Z,51.80
2023-03-05T02:32:38.831Z,48.90
2023-03-05T02:44:39.252Z,46.50
2023-03-05T02:56:39.723Z,53.60
2023-03-05T03:08:40.106Z,44.10
2023-03-05T03:20:40.771Z,45.20
2023-03-05T03:32:41.071Z,43.90
2023-03-05T03:44:41.544Z,47.30
2023-03-05T03:56:41.959Z,46.30
2023-03-05T04:08:42.409Z,47.30
2023-03-05T04:20:42.864Z,48.50
2023-03-05T04:32:43.319Z,48.50
2023-03-05T04:44:43.744Z,47.80
2023-03-05T04:56:44.215Z,46.80
2023-03-05T05:08:44.690Z,48.30
2023-03-05T05:20:45.136Z,44.70
2023-03-05T05:32:45.545Z,41.90
2023-03-05T05:44:46.034Z,43.20
2023-03-05T05:56:46.496Z,45.10
2023-03-05T06:08:46.954Z,44.70
2023-03-05T06:20:47.370Z,50.30
2023-03-05T06:32:47.828Z,52.30
2023-03-05T06:44:48.491Z,53.10
2023-03-05T06:56:48.760Z,49.50
2023-03-05T07:08:49.198Z,49.90
2023-03-05T07:20:49.651Z,50.30
2023-03-05T07:32:50.113Z,46.80
2023-03-05T07:44:50.568Z,50.40
2023-03-05T07:56:51.002Z,48.40
2023-03-05T08:08:51.469Z,54.10
2023-03-05T08:20:51.903Z,44.60
2023-03-05T08:32:52.379Z,53.20
2023-03-05T08:44:52.799Z,44.30
2023-03-05T08:56:53.253Z,36.00
2023-03-05T09:08:53.669Z,34.50
2023-03-05T09:20:54.214Z,33.90
2023-03-05T09:32:54.601Z,33.00
2023-03-05T09:44:55.073Z,32.60
2023-03-05T09:56:55.524Z,36.10
2023-03-05T10:08:56.007Z,30.60
2023-03-05T10:20:56.401Z,31.60
2023-03-05T10:32:56.881Z,30.50
2023-03-05T10:44:57.312Z,31.10
2023-03-05T10:56:57.803Z,28.50
2023-03-05T11:08:58.242Z,26.50
2023-03-05T11:20:58.689Z,24.20
2023-03-05T11:32:59.128Z,24.20
2023-03-05T11:44:59.655Z,25.00
2023-03-05T11:57:00.052Z,27.00
2023-03-05T12:09:00.518Z,25.90
2023-03-05T12:21:00.955Z,25.50
2023-03-05T12:33:01.448Z,28.20
2023-03-05T12:45:01.875Z,29.00
2023-03-05T12:57:02.331Z,31.00
2023-03-05T13:09:02.737Z,43.20
2023-03-05T13:21:03.237Z,34.80
2023-03-05T13:33:03.657Z,33.90
2023-03-05T13:45:04.134Z,29.80
2023-03-05T13:57:04.547Z,31.10
2023-03-05T14:09:05.033Z,32.20
2023-03-05T14:21:05.474Z,33.70
2023-03-05T14:33:05.981Z,35.80
2023-03-05T14:45:06.363Z,35.90
2023-03-05T14:57:06.849Z,33.30
2023-03-05T15:09:07.261Z,28.70
2023-03-05T15:21:07.760Z,29.60
2023-03-05T15:33:08.205Z,26.90
2023-03-05T15:45:08.668Z,27.20
2023-03-05T15:57:09.136Z,24.80
2023-03-05T16:09:09.519Z,22.50
2023-03-05T16:21:09.989Z,21.10
2023-03-05T16:33:10.481Z,18.90
2023-03-05T16:45:10.902Z,20.80
2023-03-05T16:57:11.383Z,18.00
2023-03-05T17:09:11.849Z,19.20
2023-03-05T17:21:12.312Z,20.00
2023-03-05T17:33:12.761Z,22.20
2023-03-05T17:45:13.182Z,24.60
2023-03-05T17:57:13.625Z,19.90
2023-03-05T18:09:14.085Z,20.90
2023-03-05T18:21:14.563Z,21.20
2023-03-05T18:33:14.988Z,22.30
2023-03-05T18:45:15.437Z,29.80
2023-03-05T18:57:15.876Z,20.40
2023-03-05T19:09:16.318Z,20.30
2023-03-05T19:21:16.796Z,22.00
2023-03-05T19:33:17.279Z,20.10
2023-03-05T19:45:17.761Z,18.90
2023-03-05T19:57:18.136Z,18.30
2023-03-05T20:09:18.652Z,18.60
2023-03-05T20:21:19.055Z,16.70
2023-03-05T20:33:19.507Z,18.90
2023-03-05T20:45:19.965Z,18.60
2023-03-05T20:57:20.405Z,19.10
2023-03-05T21:09:20.882Z,17.60
2023-03-05T21:21:21.358Z,22.00
2023-03-05T21:33:21.772Z,18.60
2023-03-05T21:45:22.217Z,23.60
2023-03-05T21:57:22.663Z,13.80
2023-03-05T22:09:23.154Z,19.30
2023-03-05T22:21:23.573Z,18.20
2023-03-05T22:33:24.051Z,17.10
2023-03-05T22:45:24.437Z,21.10
2023-03-05T22:57:24.927Z,19.10
2023-03-05T23:09:25.405Z,20.90
2023-03-05T23:21:25.835Z,19.10
2023-03-05T23:33:26.299Z,18.70
2023-03-05T23:45:26.756Z,17.60
2023-03-05T23:57:27.177Z,17.80
